Time;durP1;ratioP1;P1;durP2;ratioP2;P2;SDS_P1;SDS_P2;PMS_P1;PMS_P2;Temp;Humidity;BMP_temperature;BMP_pressure;BME280_temperature;BME280_humidity;BME280_pressure;Samples;Min_cycle;Max_cycle;Signal;HPM_P1;HPM_P2
2021/01/23 00:00:08;;;;;;;7.57;6.17;;;4.70;99.90;;;2.37;100.00;98503.78;4986097;28;100049;-61
2021/01/23 00:02:39;;;;;;;7.13;6.40;;;4.70;99.90;;;2.37;100.00;98511.72;4963596;28;100331;-61
2021/01/23 00:05:07;;;;;;;8.17;6.57;;;4.70;99.90;;;2.36;100.00;98499.50;4972027;28;100872;-61
2021/01/23 00:07:34;;;;;;;7.47;6.70;;;4.60;99.90;;;2.49;100.00;98490.22;4985551;28;101321;-60
2021/01/23 00:10:02;;;;;;;8.40;7.50;;;4.70;99.90;;;2.40;100.00;98496.41;4985399;28;100525;-61
2021/01/23 00:12:29;;;;;;;10.07;7.70;;;4.70;99.90;;;2.28;100.00;98487.06;4985780;28;100118;-60
2021/01/23 00:14:55;;;;;;;11.33;8.67;;;4.70;99.90;;;2.33;100.00;98494.53;4985566;28;100822;-59
2021/01/23 00:17:22;;;;;;;10.43;8.30;;;5.70;99.90;;;2.42;100.00;98483.06;4985386;28;100911;-61
2021/01/23 00:19:49;;;;;;;10.90;8.57;;;4.60;99.90;;;2.39;100.00;98486.84;4985095;28;100260;-62
2021/01/23 00:22:23;;;;;;;9.23;6.70;;;4.80;99.90;;;2.35;100.00;98472.25;4985304;28;100439;-61
2021/01/23 00:24:49;;;;;;;9.87;7.27;;;4.80;99.90;;;2.29;100.00;98467.59;4984564;28;101820;-60
2021/01/23 00:27:15;;;;;;;7.70;6.90;;;4.80;99.90;;;2.26;100.00;98469.72;4986208;28;100525;-60
2021/01/23 00:29:42;;;;;;;9.70;8.53;;;4.80;99.90;;;2.22;100.00;98476.28;4986275;28;100361;-60
2021/01/23 00:32:08;;;;;;;11.13;8.90;;;4.80;99.90;;;2.25;100.00;98478.59;4985804;28;100018;-61
2021/01/23 00:34:35;;;;;;;13.83;10.03;;;4.70;99.90;;;2.24;100.00;98483.03;4985626;27;100346;-61
2021/01/23 00:37:02;;;;;;;9.57;8.57;;;4.70;99.90;;;2.29;100.00;98480.81;4984405;28;101286;-62
2021/01/23 00:39:29;;;;;;;9.33;8.23;;;4.80;99.90;;;2.33;100.00;98473.41;4986121;28;100042;-61
2021/01/23 00:41:55;;;;;;;7.80;6.97;;;4.70;99.90;;;2.32;100.00;98471.75;4986682;28;100094;-60
2021/01/23 00:44:21;;;;;;;8.00;6.63;;;4.70;99.90;;;2.26;100.00;98474.97;4985018;28;101219;-61
2021/01/23 00:46:48;;;;;;;9.13;7.33;;;4.60;99.90;;;2.30;100.00;98468.44;4985169;28;101307;-61
2021/01/23 00:49:14;;;;;;;8.10;6.70;;;4.60;99.90;;;2.26;100.00;98482.91;4985594;28;100071;-61
2021/01/23 00:51:40;;;;;;;6.73;5.83;;;4.80;99.90;;;2.27;100.00;98480.13;4984949;28;100166;-60
2021/01/23 00:54:12;;;;;;;6.47;5.80;;;4.80;99.90;;;2.28;100.00;98481.78;4983995;28;102335;-62
2021/01/23 00:56:39;;;;;;;6.80;5.53;;;4.30;99.90;;;2.26;100.00;98486.38;4985570;28;100679;-61
2021/01/23 00:59:05;;;;;;;9.77;6.10;;;4.70;99.90;;;2.22;100.00;98486.84;4983432;28;100207;-60
2021/01/23 01:01:32;;;;;;;6.97;5.87;;;4.60;99.90;;;2.24;100.00;98490.97;4983974;28;100343;-62
2021/01/23 01:03:59;;;;;;;5.60;4.97;;;4.80;99.90;;;2.23;100.00;98496.38;4985332;28;101159;-61
2021/01/23 01:06:26;;;;;;;5.43;4.93;;;4.70;99.90;;;2.24;100.00;98498.03;4985851;28;101613;-60
2021/01/23 01:08:52;;;;;;;7.40;5.70;;;4.70;99.90;;;2.23;100.00;98496.38;4986676;28;100451;-60
2021/01/23 01:11:19;;;;;;;5.87;4.77;;;4.60;99.90;;;2.23;100.00;98499.84;4984283;28;100019;-60
2021/01/23 01:13:46;;;;;;;8.77;6.10;;;4.80;99.90;;;2.22;100.00;98500.03;4984140;28;101262;-60
2021/01/23 01:16:12;;;;;;;6.40;5.50;;;4.60;99.90;;;2.23;100.00;98491.94;4984767;28;100519;-60
2021/01/23 01:18:39;;;;;;;6.60;5.70;;;4.60;99.90;;;2.22;100.00;98487.66;4985656;28;100457;-61
2021/01/23 01:21:05;;;;;;;6.80;5.73;;;4.50;99.90;;;2.24;100.00;98487.50;4984847;28;100031;-60
2021/01/23 01:23:32;;;;;;;6.27;5.67;;;4.80;99.90;;;2.26;100.00;98478.44;4984685;28;100785;-61
2021/01/23 01:25:58;;;;;;;6.93;5.53;;;4.70;99.90;;;2.27;100.00;98476.66;4984901;28;100733;-61
2021/01/23 01:28:25;;;;;;;7.37;6.10;;;5.30;99.90;;;2.24;100.00;98485.69;4985096;28;100071;-60
2021/01/23 01:30:53;;;;;;;6.57;5.33;;;4.60;99.90;;;2.22;100.00;98487.66;4985368;28;100244;-60
2021/01/23 01:33:19;;;;;;;6.90;6.20;;;4.60;99.90;;;2.21;100.00;98478.09;4984624;28;100771;-60
2021/01/23 01:35:46;;;;;;;10.33;6.30;;;5.20;99.90;;;2.32;100.00;98477.03;4984512;28;100752;-62
2021/01/23 01:38:13;;;;;;;8.37;5.87;;;4.70;99.90;;;2.35;100.00;98474.09;4984719;28;100267;-62
2021/01/23 01:40:39;;;;;;;7.23;5.93;;;4.60;99.90;;;2.34;100.00;98475.91;4984815;28;100138;-59
2021/01/23 01:43:05;;;;;;;9.60;5.80;;;4.60;99.90;;;2.40;100.00;98466.53;4984989;28;101096;-60
2021/01/23 01:45:33;;;;;;;9.67;7.23;;;4.70;99.90;;;2.46;100.00;98465.97;4984873;28;101485;-60
2021/01/23 01:48:00;;;;;;;7.83;6.43;;;4.80;99.90;;;2.48;100.00;98463.97;4984231;28;100140;-61
2021/01/23 01:50:27;;;;;;;9.97;6.07;;;4.70;99.90;;;2.47;100.00;98457.06;4985258;28;100229;-59
2021/01/23 01:52:53;;;;;;;9.20;6.07;;;4.70;99.90;;;2.47;100.00;98460.50;4984977;28;101122;-61
2021/01/23 01:55:31;;;;;;;10.03;6.13;;;4.90;99.90;;;2.51;100.00;98456.59;4985256;28;100494;-62
2021/01/23 01:57:57;;;;;;;9.13;5.50;;;4.70;99.90;;;2.51;100.00;98447.84;4985013;28;100321;-62
2021/01/23 02:00:24;;;;;;;8.17;5.50;;;4.80;99.90;;;2.51;100.00;98448.66;4984425;28;99988;-61
2021/01/23 02:03:17;;;;;;;7.70;4.60;;;4.70;99.90;;;2.49;100.00;98450.63;4984988;28;101012;-63
2021/01/23 02:05:55;;;;;;;6.13;4.50;;;4.80;99.90;;;2.54;100.00;98447.53;4984572;28;101297;-62
2021/01/23 02:08:32;;;;;;;7.40;4.37;;;4.70;99.90;;;2.56;100.00;98450.03;4999809;27;100193;-63
2021/01/23 02:11:05;;;;;;;7.80;4.20;;;4.80;99.90;;;2.61;100.00;98448.56;4984081;28;100030;-62
2021/01/23 02:13:37;;;;;;;6.90;4.53;;;4.80;99.90;;;2.64;100.00;98447.44;4984384;28;100773;-62
2021/01/23 02:16:09;;;;;;;6.23;4.20;;;4.90;99.90;;;2.63;100.00;98448.44;4983945;28;101140;-63
2021/01/23 02:18:42;;;;;;;7.13;4.17;;;4.90;99.90;;;2.59;100.00;98452.38;4984667;28;100222;-61
2021/01/23 02:21:41;;;;;;;6.57;3.73;;;4.80;99.90;;;2.57;100.00;98449.06;4984386;28;100198;-61
2021/01/23 02:24:08;;;;;;;5.87;4.20;;;4.80;99.90;;;2.55;100.00;98443.91;4983474;28;100149;-62
2021/01/23 02:26:47;;;;;;;6.53;3.33;;;5.00;99.90;;;2.49;100.00;98447.97;4983881;28;101450;-62
2021/01/23 02:29:26;;;;;;;8.10;2.87;;;5.00;99.90;;;2.50;100.00;98454.09;4984618;28;100037;-62
2021/01/23 02:31:58;;;;;;;5.53;2.90;;;4.90;99.90;;;2.50;100.00;98436.44;4998518;27;100204;-62
2021/01/23 02:34:29;;;;;;;4.07;3.10;;;4.80;99.90;;;2.46;100.00;98432.47;4984651;28;101144;-62
2021/01/23 02:36:58;;;;;;;3.93;2.97;;;4.90;99.90;;;2.45;100.00;98438.72;4983470;28;100660;-62
2021/01/23 02:39:25;;;;;;;3.63;2.73;;;4.70;99.90;;;2.45;100.00;98433.44;4985040;28;100005;-61
2021/01/23 02:41:52;;;;;;;3.37;3.07;;;4.80;99.90;;;2.48;100.00;98432.28;4984234;28;100332;-62
2021/01/23 02:44:19;;;;;;;4.70;3.20;;;4.80;99.90;;;2.46;100.00;98426.38;4983817;28;101466;-61
2021/01/23 02:46:46;;;;;;;4.97;3.07;;;4.80;99.90;;;2.48;100.00;98430.47;4984347;28;101515;-62
2021/01/23 02:49:14;;;;;;;4.43;3.20;;;4.70;99.90;;;2.48;100.00;98427.84;4984006;28;100192;-62
2021/01/23 02:51:52;;;;;;;3.17;2.67;;;4.90;99.90;;;2.46;100.00;98423.72;4983710;28;100140;-62
2021/01/23 02:54:26;;;;;;;3.77;3.10;;;4.80;99.90;;;2.42;100.00;98414.44;4983217;28;101765;-62
2021/01/23 02:56:54;;;;;;;3.40;2.73;;;4.70;99.90;;;2.41;100.00;98415.41;4983248;28;100101;-60
2021/01/23 02:59:23;;;;;;;3.63;2.73;;;4.80;99.90;;;2.37;100.00;98417.53;4986612;27;100011;-61
2021/01/23 03:01:52;;;;;;;5.17;3.27;;;4.70;99.90;;;2.37;100.00;98424.63;4987500;28;100192;-61
2021/01/23 03:04:22;;;;;;;3.47;2.90;;;4.70;99.90;;;2.35;100.00;98421.31;4987770;28;100931;-59
2021/01/23 03:06:49;;;;;;;4.17;3.10;;;4.50;99.90;;;2.35;100.00;98429.25;4986747;28;100609;-63
2021/01/23 03:09:18;;;;;;;2.97;2.67;;;4.70;99.90;;;2.39;100.00;98420.00;4987423;28;100192;-63
2021/01/23 03:11:44;;;;;;;3.33;3.03;;;4.60;99.90;;;2.40;100.00;98413.75;4987608;28;100262;-61
2021/01/23 03:14:11;;;;;;;4.07;3.30;;;4.60;99.90;;;2.39;100.00;98414.72;4987063;28;100903;-61
2021/01/23 03:16:45;;;;;;;4.60;3.30;;;4.60;99.90;;;2.40;100.00;98413.75;4986283;28;101146;-63
2021/01/23 03:19:12;;;;;;;2.90;2.70;;;4.50;99.90;;;2.38;100.00;98411.25;4966926;28;99917;-62
2021/01/23 03:21:39;;;;;;;4.07;2.77;;;4.60;99.90;;;2.40;100.00;98417.22;4966562;28;100113;-61
2021/01/23 03:24:08;;;;;;;5.17;3.53;;;4.60;99.90;;;2.41;100.00;98415.41;4968074;28;101857;-62
2021/01/23 03:26:34;;;;;;;4.33;3.27;;;4.60;99.90;;;2.41;100.00;98418.06;4986632;28;100886;-62
2021/01/23 03:29:01;;;;;;;4.57;3.33;;;4.70;99.90;;;2.41;100.00;98413.59;4987667;28;100289;-63
2021/01/23 03:31:27;;;;;;;4.60;3.57;;;4.70;99.90;;;2.40;100.00;98409.31;4986790;28;100287;-62
2021/01/23 03:33:54;;;;;;;4.67;3.60;;;4.40;99.90;;;2.41;100.00;98410.97;4986712;28;101572;-61
2021/01/23 03:36:20;;;;;;;4.10;2.97;;;4.60;99.90;;;2.44;100.00;98408.03;4986926;28;101164;-62
2021/01/23 03:38:47;;;;;;;3.30;3.00;;;4.60;99.90;;;2.44;100.00;98394.00;4986938;28;100059;-62
2021/01/23 03:41:14;;;;;;;4.07;3.20;;;4.50;99.90;;;2.45;100.00;98395.66;4987131;28;100183;-61
2021/01/23 03:43:40;;;;;;;3.03;2.60;;;4.60;99.90;;;2.49;100.00;98384.63;4986150;28;100987;-61
2021/01/23 03:46:07;;;;;;;4.00;3.33;;;4.50;99.90;;;2.58;100.00;98379.44;4986519;28;101307;-62
2021/01/23 03:48:33;;;;;;;4.10;3.40;;;5.50;99.90;;;2.58;100.00;98377.63;4986960;28;100208;-62
2021/01/23 03:51:00;;;;;;;4.33;3.27;;;4.60;99.90;;;2.60;100.00;98370.34;4986297;28;100094;-62
2021/01/23 03:53:26;;;;;;;14.93;3.90;;;4.60;99.90;;;2.61;100.00;98360.63;4986826;28;100903;-61
2021/01/23 03:55:53;;;;;;;4.20;3.13;;;4.70;99.90;;;2.59;100.00;98362.59;4986137;28;100289;-61
2021/01/23 03:58:20;;;;;;;5.13;3.57;;;4.70;99.90;;;2.60;100.00;98357.16;4986482;28;100007;-61
2021/01/23 04:00:46;;;;;;;3.70;3.10;;;4.70;99.90;;;2.57;100.00;98354.00;4987193;28;100333;-62
2021/01/23 04:03:13;;;;;;;5.57;2.90;;;4.60;99.90;;;2.56;100.00;98362.91;4986150;28;100145;-61
2021/01/23 04:05:39;;;;;;;6.23;3.77;;;4.60;99.90;;;2.56;100.00;98361.09;4986192;28;100415;-60
2021/01/23 04:08:07;;;;;;;6.87;3.70;;;4.70;99.90;;;2.58;100.00;98363.59;4985489;28;99986;-61
2021/01/23 04:10:34;;;;;;;5.40;3.80;;;4.70;99.90;;;2.58;100.00;98364.41;4985128;27;100290;-61
2021/01/23 04:13:01;;;;;;;5.50;3.73;;;4.60;99.90;;;2.58;100.00;98358.31;4985167;28;100853;-61
2021/01/23 04:15:28;;;;;;;7.73;4.37;;;4.70;99.90;;;2.60;100.00;98346.59;4985250;28;100984;-61
2021/01/23 04:17:54;;;;;;;4.37;3.30;;;4.60;99.90;;;2.59;100.00;98338.84;4986069;28;100314;-62
2021/01/23 04:20:21;;;;;;;6.70;3.80;;;4.70;99.90;;;2.67;100.00;98339.72;4986300;28;99908;-61
2021/01/23 04:22:48;;;;;;;6.80;4.03;;;4.70;99.90;;;2.64;100.00;98336.56;4985534;28;101457;-62
2021/01/23 04:25:15;;;;;;;4.07;3.50;;;4.60;99.90;;;2.66;100.00;98321.38;4985672;28;100362;-61
2021/01/23 04:27:42;;;;;;;6.07;4.33;;;4.70;99.90;;;2.64;100.00;98315.44;4986238;28;100305;-61
2021/01/23 04:30:27;;;;;;;7.50;3.93;;;4.80;99.90;;;2.66;100.00;98324.84;4985401;28;99970;-62
2021/01/23 04:32:53;;;;;;;6.57;4.03;;;4.70;99.90;;;2.61;100.00;98321.00;4983966;28;100979;-60
2021/01/23 04:35:21;;;;;;;5.10;4.00;;;4.70;99.90;;;2.59;100.00;98308.00;4985325;28;100893;-62
2021/01/23 04:37:48;;;;;;;6.37;4.30;;;4.70;99.90;;;2.61;100.00;98307.81;4986109;28;100210;-60
2021/01/23 04:40:15;;;;;;;5.83;4.30;;;4.70;99.90;;;2.57;100.00;98301.19;4985837;28;99995;-62
2021/01/23 04:42:42;;;;;;;8.07;4.33;;;4.60;99.90;;;2.53;100.00;98303.31;4985979;28;101431;-61
2021/01/23 04:45:10;;;;;;;5.87;3.80;;;4.50;99.90;;;2.45;100.00;98296.19;4985393;28;100383;-61
2021/01/23 04:47:38;;;;;;;6.30;4.70;;;4.50;99.90;;;2.41;100.00;98300.09;4986570;28;100222;-61
2021/01/23 04:50:07;;;;;;;6.13;4.50;;;4.50;99.90;;;2.39;100.00;98295.97;4986250;28;100246;-61
2021/01/23 04:52:36;;;;;;;6.50;4.50;;;4.50;99.90;;;2.42;100.00;98304.41;4985929;28;100473;-62
2021/01/23 04:55:04;;;;;;;6.43;4.17;;;4.30;99.90;;;2.35;100.00;98297.28;4983625;28;101504;-63
2021/01/23 04:57:31;;;;;;;6.67;4.20;;;4.40;99.90;;;2.32;100.00;98300.22;4985732;28;100015;-62
2021/01/23 04:59:57;;;;;;;5.47;3.90;;;4.40;99.90;;;2.32;100.00;98295.78;4985735;28;99957;-62
2021/01/23 05:02:24;;;;;;;5.47;4.13;;;4.20;99.90;;;2.28;100.00;98293.59;4985638;28;100920;-62
2021/01/23 05:04:55;;;;;;;6.73;4.50;;;4.40;99.90;;;2.28;100.00;98288.31;4985584;28;100345;-63
2021/01/23 05:07:30;;;;;;;5.57;3.83;;;4.10;99.90;;;2.27;100.00;98289.28;4986336;28;100034;-61
2021/01/23 05:09:57;;;;;;;5.50;2.77;;;4.10;99.90;;;2.30;100.00;98281.06;4984062;28;100093;-61
2021/01/23 05:12:40;;;;;;;9.77;5.23;;;3.90;99.90;;;2.31;100.00;98280.91;4985242;28;100613;-60
2021/01/23 05:15:09;;;;;;;5.83;4.17;;;4.10;99.90;;;2.27;100.00;98284.00;4984794;28;100846;-62
2021/01/23 05:17:51;;;;;;;7.00;4.80;;;4.00;99.90;;;2.30;100.00;98281.06;4986035;28;100049;-62
2021/01/23 05:20:33;;;;;;;8.53;5.43;;;3.90;99.90;;;2.28;100.00;98277.75;4985504;27;100069;-61
2021/01/23 05:23:01;;;;;;;6.40;4.80;;;4.00;99.90;;;2.26;100.00;98288.44;4984093;28;100856;-63
2021/01/23 05:25:30;;;;;;;5.73;4.80;;;3.90;99.90;;;2.27;100.00;98294.56;4984909;28;100404;-59
2021/01/23 05:27:57;;;;;;;6.57;4.97;;;3.90;99.90;;;2.21;100.00;98293.38;4984787;28;100254;-61
2021/01/23 05:30:25;;;;;;;8.03;5.23;;;3.80;99.90;;;2.20;100.00;98298.81;4985913;28;100027;-63
2021/01/23 05:33:06;;;;;;;8.57;5.33;;;4.00;99.90;;;2.15;100.00;98297.44;4983060;28;100344;-62
2021/01/23 05:35:35;;;;;;;8.37;6.03;;;3.80;99.90;;;2.12;100.00;98291.63;4985300;28;100526;-62
2021/01/23 05:38:21;;;;;;;6.53;5.67;;;3.90;99.90;;;2.04;100.00;98292.41;4986402;28;100032;-64
2021/01/23 05:40:51;;;;;;;7.70;5.43;;;3.80;99.90;;;2.01;100.00;98286.59;4984978;28;100168;-63
2021/01/23 05:43:34;;;;;;;6.87;5.50;;;3.90;99.90;;;1.89;100.00;98293.09;4985072;28;101172;-64
2021/01/23 05:46:05;;;;;;;7.30;5.43;;;3.90;99.90;;;1.74;100.00;98285.72;4982621;28;101099;-64
2021/01/23 05:48:31;;;;;;;8.97;5.87;;;3.80;99.90;;;1.71;100.00;98279.94;4983964;28;100224;-65
2021/01/23 05:50:59;;;;;;;8.90;5.93;;;3.60;99.90;;;1.71;100.00;98270.22;4984919;28;100520;-64
2021/01/23 05:53:26;;;;;;;9.03;6.40;;;3.70;99.90;;;1.68;100.00;98273.16;4982542;28;101752;-66
2021/01/23 05:55:52;;;;;;;7.97;6.43;;;3.50;99.90;;;1.65;100.00;98280.53;4983888;28;101307;-64
2021/01/23 05:58:19;;;;;;;9.27;6.27;;;3.60;99.90;;;1.67;100.00;98274.13;4984813;28;100087;-65
2021/01/23 06:00:48;;;;;;;9.20;6.20;;;3.60;99.90;;;1.68;100.00;98280.25;4984938;28;100578;-66
2021/01/23 06:03:15;;;;;;;11.83;6.43;;;3.30;99.90;;;1.65;100.00;98270.81;4984093;28;101584;-67
2021/01/23 06:05:42;;;;;;;9.93;6.63;;;3.40;99.90;;;1.72;100.00;98268.41;4984894;28;101380;-67
2021/01/23 06:08:40;;;;;;;8.70;6.67;;;3.50;99.90;;;1.63;100.00;98261.41;4984951;28;100043;-67
2021/01/23 06:11:39;;;;;;;12.70;7.67;;;3.40;99.90;;;1.53;100.00;98248.31;4984353;28;100272;-66
2021/01/23 06:14:06;;;;;;;10.20;7.07;;;3.40;99.90;;;1.50;100.00;98239.84;4983648;28;100615;-65
2021/01/23 06:16:44;;;;;;;8.40;6.73;;;3.40;99.90;;;1.41;100.00;98229.25;4984719;28;100678;-66
2021/01/23 06:19:42;;;;;;;10.60;7.27;;;3.30;99.90;;;1.39;100.00;98230.38;4984590;28;100263;-64
2021/01/23 06:22:12;;;;;;;10.33;8.20;;;3.30;99.90;;;1.40;100.00;98240.78;4920911;28;100396;-65
2021/01/23 06:24:58;;;;;;;12.40;8.40;;;3.30;99.90;;;1.36;100.00;98234.13;4970468;28;101921;-67
2021/01/23 06:27:48;;;;;;;10.10;7.93;;;3.20;99.90;;;1.31;100.00;98236.41;4984055;28;101449;-65
2021/01/23 06:30:28;;;;;;;14.90;8.10;;;3.20;99.90;;;1.33;100.00;98239.72;4983942;28;99793;-65
2021/01/23 06:32:55;;;;;;;15.17;9.17;;;3.20;99.90;;;1.29;100.00;98227.00;4986654;27;100431;-66
2021/01/23 06:35:21;;;;;;;11.50;8.77;;;3.20;99.90;;;1.20;100.00;98231.34;4987587;28;100756;-66
2021/01/23 06:37:48;;;;;;;11.00;7.80;;;3.00;99.90;;;1.19;100.00;98237.59;4986936;28;100994;-66
2021/01/23 06:40:17;;;;;;;11.63;8.20;;;3.10;99.90;;;1.20;100.00;98244.53;4986008;28;100484;-65
2021/01/23 06:42:47;;;;;;;13.67;9.37;;;3.10;99.90;;;1.17;100.00;98242.19;4984843;28;100593;-66
2021/01/23 06:45:23;;;;;;;11.93;8.33;;;3.10;99.90;;;1.23;100.00;98240.78;4983899;28;101541;-65
2021/01/23 06:47:52;;;;;;;14.03;8.90;;;3.00;99.90;;;1.22;100.00;98247.84;4984108;28;100659;-65
2021/01/23 06:50:39;;;;;;;12.53;8.70;;;3.10;99.90;;;1.18;100.00;98251.75;4985033;28;100271;-64
2021/01/23 06:53:07;;;;;;;11.10;8.43;;;3.10;99.90;;;1.19;100.00;98257.84;4983549;28;100299;-65
2021/01/23 06:55:46;;;;;;;12.57;8.03;;;3.00;99.90;;;1.19;100.00;98263.94;4984882;28;100928;-64
2021/01/23 06:58:24;;;;;;;10.40;7.30;;;3.10;99.90;;;1.16;100.00;98256.34;4985144;28;100540;-66
2021/01/23 07:00:53;;;;;;;12.13;8.13;;;3.10;99.90;;;1.14;100.00;98260.91;4984820;28;99969;-66
2021/01/23 07:03:20;;;;;;;15.93;9.13;;;3.00;99.90;;;1.14;100.00;98268.81;4984953;28;100381;-66
2021/01/23 07:05:53;;;;;;;14.83;8.77;;;2.90;99.90;;;1.13;100.00;98275.06;4984229;28;99985;-67
2021/01/23 07:08:29;;;;;;;19.63;11.10;;;3.00;99.90;;;1.10;100.00;98270.09;4984596;28;100933;-64
2021/01/23 07:11:13;;;;;;;15.23;10.10;;;3.00;99.90;;;1.06;100.00;98261.66;4984094;28;100808;-65
2021/01/23 07:13:57;;;;;;;14.27;9.37;;;3.00;99.90;;;0.99;100.00;98271.13;4985281;28;99874;-65
2021/01/23 07:16:24;;;;;;;13.30;9.40;;;3.10;99.90;;;0.97;100.00;98280.16;4981706;28;100781;-65
2021/01/23 07:18:55;;;;;;;16.87;9.90;;;3.00;99.90;;;0.96;100.00;98283.75;4984074;28;101286;-65
2021/01/23 07:21:23;;;;;;;17.80;9.67;;;2.90;99.90;;;0.87;100.00;98279.34;4984251;28;100346;-64
2021/01/23 07:23:51;;;;;;;14.57;10.37;;;2.80;99.90;;;0.85;100.00;98282.16;4984796;28;99983;-65
2021/01/23 07:26:20;;;;;;;16.23;10.87;;;2.70;99.90;;;0.85;100.00;98276.91;4983684;28;101003;-66
2021/01/23 07:28:49;;;;;;;18.40;11.47;;;2.80;99.90;;;0.83;100.00;98285.91;4984848;28;100552;-65
2021/01/23 07:31:20;;;;;;;14.27;10.47;;;2.90;99.90;;;0.82;100.00;98279.81;4983445;28;100446;-64
2021/01/23 07:33:47;;;;;;;15.90;11.10;;;2.70;99.90;;;0.88;100.00;98283.66;4989538;28;100174;-64
2021/01/23 07:36:31;;;;;;;19.33;12.00;;;2.70;99.90;;;0.80;100.00;98281.75;4984202;28;100646;-65
2021/01/23 07:38:59;;;;;;;13.33;9.77;;;2.80;99.90;;;0.76;100.00;98283.00;4983571;28;101231;-64
2021/01/23 07:41:31;;;;;;;13.57;10.20;;;2.80;99.90;;;0.77;100.00;98278.56;4984594;28;100249;-65
2021/01/23 07:43:59;;;;;;;16.20;11.23;;;2.80;99.90;;;0.76;100.00;98275.09;4983607;28;100366;-65
2021/01/23 07:46:34;;;;;;;17.47;11.87;;;2.60;99.90;;;0.77;100.00;98273.31;4983381;28;101680;-64
2021/01/23 07:49:01;;;;;;;17.23;12.13;;;2.70;99.90;;;0.75;100.00;98277.88;4984324;28;100387;-64
2021/01/23 07:51:28;;;;;;;18.83;12.37;;;2.70;99.90;;;0.67;100.00;98283.88;4984171;28;99993;-65
2021/01/23 07:54:11;;;;;;;21.93;14.20;;;2.70;99.90;;;0.62;100.00;98286.94;4985080;28;100381;-65
2021/01/23 07:56:54;;;;;;;17.23;12.27;;;2.70;99.90;;;0.60;100.00;98288.09;4983391;28;101843;-64
2021/01/23 07:59:22;;;;;;;17.53;11.90;;;2.60;99.90;;;0.50;100.00;98282.81;4983667;28;100391;-65
2021/01/23 08:01:49;;;;;;;16.37;11.93;;;2.50;99.90;;;0.43;100.00;98289.66;4982987;28;100150;-64
2021/01/23 08:04:36;;;;;;;15.60;11.27;;;2.50;99.90;;;0.38;100.00;98291.03;4984216;28;100053;-65
2021/01/23 08:07:19;;;;;;;15.53;11.10;;;2.60;99.90;;;0.27;100.00;98289.41;4983087;28;101477;-65
2021/01/23 08:09:46;;;;;;;19.43;11.23;;;2.70;99.90;;;0.15;100.00;98295.78;4983048;28;100591;-66
2021/01/23 08:12:19;;;;;;;18.60;10.33;;;2.50;99.90;;;0.05;100.00;98295.81;4983710;28;100354;-66
2021/01/23 08:14:56;;;;;;;14.77;9.90;;;2.60;99.90;;;-0.10;100.00;98295.41;4985442;28;100178;-65
2021/01/23 08:17:37;;;;;;;14.47;10.23;;;2.50;99.90;;;-0.23;100.00;98288.78;4983493;28;99951;-66
2021/01/23 08:20:06;;;;;;;14.70;10.00;;;2.40;99.90;;;-0.29;100.00;98294.59;4983556;28;101272;-67
2021/01/23 08:22:33;;;;;;;14.43;9.80;;;2.40;99.90;;;-0.29;100.00;98298.06;4983756;28;99899;-68
2021/01/23 08:24:59;;;;;;;15.00;10.67;;;2.30;99.90;;;-0.33;100.00;98293.22;4983110;28;100151;-67
2021/01/23 08:27:28;;;;;;;17.40;10.27;;;2.00;99.90;;;-0.42;100.00;98285.19;4983256;28;100930;-68
2021/01/23 08:29:54;;;;;;;15.47;10.43;;;2.10;99.90;;;-0.46;100.00;98289.06;4983584;28;100425;-71
2021/01/23 08:32:20;;;;;;;13.77;9.60;;;2.00;99.90;;;-0.55;100.00;98296.94;4983302;28;99948;-70
2021/01/23 08:34:47;;;;;;;17.93;10.20;;;2.00;99.90;;;-0.58;100.00;98289.31;4983112;28;100199;-70
2021/01/23 08:37:13;;;;;;;18.00;13.37;;;1.40;99.90;;;-0.60;100.00;98293.88;4983362;28;101380;-71
2021/01/23 08:39:45;;;;;;;20.80;11.53;;;1.90;99.90;;;-0.60;100.00;98294.72;4983086;28;100468;-72
2021/01/23 08:42:12;;;;;;;16.53;10.43;;;1.80;99.90;;;-0.70;100.00;98293.03;4983781;28;100115;-70
2021/01/23 08:44:39;;;;;;;23.17;11.00;;;0.60;99.90;;;-0.73;100.00;98288.88;4983510;28;100096;-72
2021/01/23 08:47:06;;;;;;;17.70;10.70;;;1.70;99.90;;;-0.70;100.00;98288.63;4982576;28;101144;-71
2021/01/23 08:49:33;;;;;;;16.33;10.50;;;1.50;99.90;;;-0.74;100.00;98289.84;4983013;28;101354;-72
2021/01/23 08:52:00;;;;;;;13.40;9.63;;;1.60;99.90;;;-0.70;100.00;98296.50;4982582;28;100158;-76
2021/01/23 08:54:26;;;;;;;16.37;10.93;;;1.50;99.90;;;-0.63;100.00;98299.41;4982916;28;100056;-73
2021/01/23 08:56:53;;;;;;;16.07;10.90;;;1.50;99.90;;;-0.68;100.00;98301.63;4981972;28;100820;-73
2021/01/23 08:59:19;;;;;;;13.07;9.77;;;1.50;99.90;;;-0.67;100.00;98300.66;4980353;28;102634;-74
2021/01/23 09:01:46;;;;;;;14.23;10.97;;;1.40;99.90;;;-0.64;100.00;98309.09;4982521;28;100162;-74
2021/01/23 09:04:13;;;;;;;13.33;8.87;;;1.50;99.90;;;-0.56;100.00;98313.66;4983219;28;100073;-73
2021/01/23 09:06:39;;;;;;;12.97;9.37;;;1.40;99.90;;;-0.57;100.00;98315.44;4982180;28;100797;-74
2021/01/23 09:09:07;;;;;;;15.00;9.30;;;1.40;99.90;;;-0.50;100.00;98306.06;4979860;28;102462;-71
2021/01/23 09:11:36;;;;;;;17.93;10.60;;;2.00;99.90;;;-0.54;100.00;98309.94;4979622;28;100286;-73
2021/01/23 09:14:04;;;;;;;14.20;10.00;;;1.50;99.90;;;-0.49;100.00;98312.13;4982593;28;100119;-76
2021/01/23 09:16:30;;;;;;;15.57;8.73;;;2.20;99.90;;;-0.47;100.00;98318.91;4981507;28;101003;-72
2021/01/23 09:18:58;;;;;;;13.43;8.83;;;1.50;99.90;;;-0.42;100.00;98326.41;4982629;28;100734;-71
2021/01/23 09:21:24;;;;;;;13.67;9.53;;;1.60;99.90;;;-0.39;100.00;98324.34;4982537;28;100665;-74
2021/01/23 09:23:51;;;;;;;12.90;8.97;;;1.70;99.90;;;-0.42;100.00;98316.72;4982230;28;100001;-74
2021/01/23 09:26:17;;;;;;;12.93;9.10;;;1.80;99.90;;;-0.43;100.00;98322.94;4979604;28;102918;-76
2021/01/23 09:28:44;;;;;;;11.30;8.50;;;1.60;99.90;;;-0.37;100.00;98316.28;4981868;28;101467;-76
2021/01/23 09:31:10;;;;;;;11.77;8.77;;;1.70;99.90;;;-0.34;100.00;98331.78;4981718;28;100365;-76
2021/01/23 09:33:37;;;;;;;10.73;7.27;;;1.70;99.90;;;-0.34;100.00;98323.06;4983850;28;99990;-76
2021/01/23 09:36:05;;;;;;;11.20;7.10;;;1.70;99.90;;;-0.32;100.00;98336.91;4982956;28;101559;-75
2021/01/23 09:38:32;;;;;;;10.83;7.07;;;1.80;99.90;;;-0.24;100.00;98342.31;4981704;28;100596;-76
2021/01/23 09:40:58;;;;;;;8.43;6.57;;;1.70;99.90;;;-0.32;100.00;98340.38;4982188;28;100491;-77
2021/01/23 09:43:25;;;;;;;9.80;6.90;;;1.90;99.90;;;-0.32;100.00;98335.13;4981835;28;100136;-75
2021/01/23 09:45:51;;;;;;;8.97;7.30;;;1.80;99.90;;;-0.28;100.00;98335.69;4981210;28;101398;-76
2021/01/23 09:48:20;;;;;;;8.83;6.73;;;1.70;99.90;;;-0.29;100.00;98342.72;4981635;28;100580;-79
2021/01/23 09:50:46;;;;;;;10.67;7.80;;;1.80;99.90;;;-0.30;100.00;98341.06;4981934;28;100127;-77
2021/01/23 09:53:13;;;;;;;8.97;5.83;;;1.70;99.90;;;-0.31;100.00;98339.41;4981692;28;100230;-80
2021/01/23 09:55:42;;;;;;;7.73;5.90;;;1.70;99.90;;;-0.30;100.00;98337.63;4995853;27;103870;-82
2021/01/23 09:58:08;;;;;;;7.83;6.27;;;1.80;99.90;;;-0.30;100.00;98343.69;4981085;28;100985;-74
2021/01/23 10:00:35;;;;;;;7.30;6.57;;;1.80;99.90;;;-0.30;100.00;98350.75;4978334;28;100469;-77
2021/01/23 10:03:01;;;;;;;7.63;6.07;;;1.80;99.90;;;-0.40;100.00;98348.13;4981601;28;100286;-77
2021/01/23 10:05:28;;;;;;;10.70;8.00;;;1.80;99.90;;;-0.34;100.00;98351.97;4978858;28;103747;-80
2021/01/23 10:07:54;;;;;;;10.97;6.90;;;1.70;99.90;;;-0.37;100.00;98353.91;4981033;28;101013;-78
2021/01/23 10:10:21;;;;;;;8.27;5.77;;;1.80;99.90;;;-0.45;100.00;98361.66;4979109;28;102611;-80
2021/01/23 10:12:48;;;;;;;6.03;5.10;;;1.70;99.90;;;-0.47;100.00;98360.13;4981457;28;99946;-75
2021/01/23 10:15:15;;;;;;;4.27;3.83;;;1.80;99.90;;;-0.50;100.00;98360.41;4981724;28;101210;-82
2021/01/23 10:17:42;;;;;;;5.67;4.10;;;1.80;99.90;;;-0.49;100.00;98356.78;4979831;28;103569;-79
2021/01/23 10:20:10;;;;;;;6.10;4.57;;;1.70;99.90;;;-0.48;100.00;98359.28;4982428;28;100389;-81
2021/01/23 10:22:36;;;;;;;7.57;4.00;;;1.80;99.90;;;-0.48;100.00;98359.28;4985617;28;100105;-83
2021/01/23 10:25:04;;;;;;;3.70;3.20;;;1.50;99.90;;;-0.53;100.00;98364.13;4979434;28;103268;-79